Data for 11/09/2010

Time Sea-Level Adjusted Pressure Absolute Pressure Temperature Relative Humidity Dew Point   
(mb) (inHg) (mb) (inHg) (C) (F) (%) (C) (F)
00:05 1013 29.91 842 24.86 -0.8 30.6 98 -1 30.1
00:10 1013 29.91 842 24.86 -0.8 30.5 98 -1.1 30
00:15 1013 29.91 842 24.86 -0.8 30.6 98 -1.1 30
00:20 1013 29.91 843 24.89 -0.8 30.6 98 -1.1 30
00:25 1013 29.91 843 24.89 -0.8 30.5 98 -1.2 29.9
00:30 1013 29.91 843 24.89 -0.8 30.5 98 -1.1 30
00:35 1013 29.91 843 24.89 -0.8 30.5 98 -1.1 30
00:40 1013 29.91 843 24.89 -0.9 30.4 98 -1.2 29.9
00:45 1013 29.91 842 24.86 -0.8 30.5 98 -1.1 29.9
00:50 1013 29.91 842 24.86 -0.8 30.6 98 -1.1 30
00:55 1013 29.91 842 24.86 -0.8 30.6 97 -1.1 29.9
01:00 1013 29.91 842 24.86 -0.8 30.6 97 -1.2 29.9
01:05 1013 29.91 842 24.86 -0.8 30.6 97 -1.2 29.8
01:10 1013 29.91 842 24.86 -0.8 30.6 97 -1.2 29.8
01:15 1013 29.91 842 24.86 -0.8 30.5 97 -1.3 29.7
01:20 1013 29.91 842 24.86 -0.8 30.5 97 -1.3 29.7
01:25 1013 29.91 842 24.86 -0.8 30.5 97 -1.3 29.7
01:30 1013 29.91 842 24.86 -0.8 30.5 97 -1.3 29.7
01:35 1013 29.91 842 24.86 -0.9 30.5 97 -1.3 29.6
01:40 1013 29.91 842 24.86 -0.9 30.4 97 -1.3 29.6
01:45 1013 29.91 842 24.86 -0.9 30.3 97 -1.4 29.5
01:50 1013 29.91 843 24.89 -0.9 30.3 97 -1.4 29.5
01:55 1013 29.91 843 24.89 -0.9 30.4 97 -1.4 29.5
02:00 1013 29.91 842 24.86 -1 30.3 97 -1.4 29.5
02:05 1013 29.91 842 24.86 -0.9 30.3 97 -1.4 29.5
02:10 1013 29.91 842 24.86 -0.9 30.3 97 -1.4 29.5
02:15 1013 29.91 842 24.86 -0.9 30.3 97 -1.4 29.4
02:20 1013 29.91 842 24.86 -1 30.2 97 -1.5 29.4
02:25 1013 29.91 843 24.89 -1 30.3 96 -1.5 29.4
02:30 1013 29.91 843 24.89 -1 30.3 96 -1.5 29.4
02:35 1013 29.91 843 24.89 -1 30.3 97 -1.5 29.4
02:40 1013 29.91 843 24.89 -1 30.3 97 -1.4 29.4
02:45 1014 29.94 843 24.89 -0.9 30.3 97 -1.4 29.5
02:50 1014 29.94 843 24.89 -0.9 30.3 97 -1.4 29.5
02:55 1014 29.94 843 24.89 -0.9 30.3 97 -1.4 29.5
03:00 1014 29.94 843 24.89 -1 30.1 97 -1.5 29.3
03:05 1013 29.91 843 24.89 -1.1 30 97 -1.5 29.3
03:10 1013 29.91 843 24.89 -1.1 30.1 97 -1.5 29.3
03:15 1013 29.91 843 24.89 -1.1 30 97 -1.5 29.2
03:20 1013 29.91 843 24.89 -1.1 30 97 -1.6 29.2
03:25 1013 29.91 843 24.89 -1.1 30 96 -1.6 29.1
03:30 1013 29.91 843 24.89 -1.2 29.9 96 -1.7 28.9
03:35 1014 29.94 843 24.89 -1.2 29.9 96 -1.7 29
03:40 1014 29.94 843 24.89 -1.1 29.9 96 -1.7 29
03:45 1013 29.91 843 24.89 -1.1 30 96 -1.7 29
03:50 1013 29.91 843 24.89 -1.1 30 96 -1.7 29
03:55 1013 29.91 843 24.89 -1.1 29.9 96 -1.7 28.9
04:00 1014 29.94 843 24.89 -1.1 30 96 -1.7 28.9
04:05 1014 29.94 843 24.89 -1.2 29.9 96 -1.8 28.8
04:10 1014 29.94 843 24.89 -1.2 29.9 95 -1.8 28.7
04:15 1014 29.94 843 24.89 -1.2 29.9 95 -1.8 28.7
04:20 1014 29.94 843 24.89 -1.2 29.9 95 -1.8 28.7
04:25 1014 29.94 843 24.89 -1.2 29.9 95 -1.9 28.6
04:30 1014 29.94 843 24.89 -1.2 29.9 95 -1.8 28.7
04:35 1014 29.94 843 24.89 -1.1 29.9 95 -1.9 28.6
04:40 1014 29.94 843 24.89 -1.2 29.9 95 -1.9 28.6
04:45 1014 29.94 843 24.89 -1.2 29.9 95 -1.9 28.5
04:50 1014 29.94 843 24.89 -1.2 29.8 95 -2 28.5
04:55 1014 29.94 843 24.89 -1.2 29.8 95 -2 28.4
05:00 1014 29.94 843 24.89 -1.3 29.7 95 -2 28.4
05:05 1014 29.94 843 24.89 -1.3 29.7 95 -2 28.3
05:10 1014 29.94 843 24.89 -1.3 29.7 94 -2.1 28.3
05:15 1014 29.94 843 24.89 -1.3 29.6 95 -2.1 28.3
05:20 1014 29.94 843 24.89 -1.3 29.6 95 -2.1 28.3
05:25 1014 29.94 843 24.89 -1.3 29.7 94 -2.1 28.3
05:30 1014 29.94 843 24.89 -1.2 29.8 94 -2.1 28.3
05:35 1014 29.94 844 24.92 -1.2 29.8 94 -2.1 28.3
05:40 1014 29.94 844 24.92 -1.3 29.7 94 -2.1 28.2
05:45 1014 29.94 844 24.92 -1.4 29.5 94 -2.2 28.1
05:50 1014 29.94 844 24.92 -1.4 29.5 95 -2.1 28.2
05:55 1014 29.94 844 24.92 -1.3 29.7 94 -2.1 28.2
06:00 1014 29.94 844 24.92 -1.3 29.7 94 -2.1 28.2
06:05 1015 29.97 844 24.92 -1.3 29.7 94 -2.2 28.1
06:10 1015 29.97 844 24.92 -1.3 29.6 94 -2.2 28
06:15 1015 29.97 844 24.92 -1.3 29.6 94 -2.2 28
06:20 1015 29.97 844 24.92 -1.3 29.7 94 -2.2 28.1
06:25 1015 29.97 844 24.92 -1.3 29.6 94 -2.2 28
06:30 1015 29.97 844 24.92 -1.3 29.6 94 -2.2 28.1
06:35 1015 29.97 844 24.92 -1.3 29.6 94 -2.1 28.1
06:40 1015 29.97 844 24.92 -1.4 29.5 94 -2.2 28
06:45 1015 29.97 844 24.92 -1.5 29.4 94 -2.3 27.9
06:50 1015 29.97 844 24.92 -1.5 29.3 94 -2.4 27.7
06:55 1015 29.97 844 24.92 -1.5 29.4 93 -2.4 27.7
07:00 1015 29.97 844 24.92 -1.4 29.4 93 -2.4 27.7
07:05 1015 29.97 844 24.92 -1.4 29.5 93 -2.4 27.8
07:10 1015 29.97 844 24.92 -1.5 29.3 94 -2.3 27.8
07:15 1015 29.97 844 24.92 -1.5 29.3 94 -2.3 27.8
07:20 1015 29.97 844 24.92 -1.5 29.3 94 -2.3 27.9
07:25 1015 29.97 844 24.92 -1.5 29.3 94 -2.3 27.9
07:30 1015 29.97 844 24.92 -1.6 29.1 94 -2.4 27.7
07:35 1015 29.97 844 24.92 -1.7 28.9 95 -2.4 27.6
07:40 1015 29.97 844 24.92 -1.7 28.9 95 -2.4 27.7
07:45 1015 29.97 844 24.92 -1.7 28.9 95 -2.4 27.8
07:50 1015 29.97 844 24.92 -1.7 29 95 -2.4 27.8
07:55 1015 29.97 844 24.92 -1.6 29 95 -2.4 27.7
08:00 1015 29.97 844 24.92 -1.6 29.1 94 -2.4 27.7
08:05 1015 29.97 844 24.92 -1.5 29.3 94 -2.4 27.7
08:10 1015 29.97 844 24.92 -1.4 29.4 93 -2.4 27.6
08:15 1015 29.97 844 24.92 -1.4 29.4 93 -2.5 27.5
08:20 1015 29.97 844 24.92 -1.4 29.5 92 -2.6 27.4
08:25 1015 29.97 844 24.92 -1.4 29.4 92 -2.6 27.4
08:30 1015 29.97 844 24.92 -1.3 29.7 91 -2.6 27.3
08:35 1015 29.97 844 24.92 -1.3 29.6 90 -2.7 27.1
08:40 1015 29.97 845 24.95 -1.3 29.7 90 -2.7 27.1
08:45 1015 29.97 844 24.92 -1.3 29.7 89 -2.9 26.8
08:50 1015 29.97 844 24.92 -1.4 29.4 90 -2.9 26.7
08:55 1015 29.97 844 24.92 -1.5 29.2 90 -2.9 26.8
09:00 1015 29.97 844 24.92 -1.5 29.3 91 -2.8 26.9
09:05 1015 29.97 844 24.92 -1.4 29.5 90 -2.9 26.8
09:10 1015 29.97 844 24.92 -1.4 29.4 90 -2.9 26.8
09:15 1015 29.97 844 24.92 -1.3 29.6 89 -2.9 26.7
09:20 1015 29.97 844 24.92 -1.2 29.9 89 -2.8 26.9
09:25 1015 29.97 844 24.92 -0.8 30.5 87 -2.8 27
09:30 1015 29.97 844 24.92 -0.9 30.4 86 -3 26.7
09:35 1015 29.97 844 24.92 -0.9 30.3 86 -3 26.5
09:40 1015 29.97 844 24.92 -0.7 30.7 86 -2.9 26.9
09:45 1015 29.97 844 24.92 -0.3 31.5 84 -2.7 27.1
09:50 1015 29.97 844 24.92 -0.1 31.8 83 -2.6 27.4
09:55 1015 29.97 844 24.92 0.1 32.2 81 -2.8 27
10:00 1015 29.97 844 24.92 -0 31.9 82 -2.8 27
10:05 1015 29.97 844 24.92 -0.2 31.6 82 -2.9 26.8
10:10 1015 29.97 844 24.92 -0.4 31.3 83 -2.9 26.7
10:15 1015 29.97 844 24.92 -0.6 30.9 82 -3.3 26
10:20 1015 29.97 844 24.92 -0.8 30.6 83 -3.3 26
10:25 1015 29.97 844 24.92 -0.7 30.8 83 -3.3 26.1
10:30 1015 29.97 845 24.95 -0.6 30.9 82 -3.4 26
10:35 1015 29.97 844 24.92 -0.6 30.9 83 -3.1 26.3
10:40 1015 29.97 845 24.95 -0.3 31.4 82 -3.1 26.4
10:45 1015 29.97 844 24.92 -0.3 31.5 79 -3.4 25.8
10:50 1015 29.97 844 24.92 -0.6 31 80 -3.5 25.6
10:55 1015 29.97 844 24.92 -0.6 31 79 -3.7 25.3
11:00 1015 29.97 844 24.92 -0.5 31.2 80 -3.5 25.7
11:05 1015 29.97 844 24.92 -0.2 31.6 80 -3.3 26.1
11:10 1015 29.97 844 24.92 -0 32 79 -3.3 26.1
11:15 1015 29.97 844 24.92 0.1 32.2 78 -3.3 26
11:20 1015 29.97 844 24.92 0 32 77 -3.6 25.5
11:25 1015 29.97 844 24.92 0 32.1 76 -3.7 25.3
11:30 1015 29.97 844 24.92 0.1 32.1 76 -3.6 25.5
11:35 1015 29.97 844 24.92 0.1 32.2 76 -3.6 25.6
11:40 1015 29.97 844 24.92 0.1 32.1 76 -3.7 25.3
11:45 1015 29.97 844 24.92 0.1 32.1 76 -3.6 25.4
11:50 1015 29.97 844 24.92 -0 31.9 75 -4 24.8
11:55 1015 29.97 844 24.92 0.1 32.2 76 -3.7 25.4
12:00 1015 29.97 844 24.92 0.3 32.5 76 -3.6 25.6
12:05 1015 29.97 844 24.92 0.3 32.6 75 -3.6 25.5
12:10 1015 29.97 844 24.92 0.5 32.8 74 -3.7 25.3
12:15 1015 29.97 844 24.92 0.4 32.8 72 -4 24.9
12:20 1015 29.97 844 24.92 0.6 33.1 70 -4.3 24.2
12:25 1015 29.97 844 24.92 1 33.9 68 -4.1 24.5
12:30 1015 29.97 844 24.92 1.1 34.1 69 -3.9 24.9
12:35 1015 29.97 844 24.92 1.3 34.4 68 -3.9 24.9
12:40 1015 29.97 844 24.92 1.1 34 68 -4.2 24.4
12:45 1015 29.97 844 24.92 0.9 33.5 69 -4.2 24.4
12:50 1015 29.97 844 24.92 0.7 33.3 67 -4.7 23.5
12:55 1015 29.97 844 24.92 0.9 33.7 66 -4.6 23.7
13:00 1015 29.97 844 24.92 0.7 33.2 68 -4.7 23.6
13:05 1014 29.94 844 24.92 0.9 33.6 66 -4.7 23.5
13:10 1014 29.94 844 24.92 1 33.7 68 -4.3 24.2
13:15 1014 29.94 844 24.92 1 33.8 65 -4.8 23.4
13:20 1014 29.94 844 24.92 0.8 33.5 67 -4.6 23.8
13:25 1014 29.94 843 24.89 0.9 33.6 67 -4.6 23.7
13:30 1014 29.94 843 24.89 0.9 33.6 66 -4.8 23.3
13:35 1014 29.94 843 24.89 1.1 33.9 65 -4.9 23.2
13:40 1014 29.94 843 24.89 1.4 34.6 63 -4.9 23.1
13:45 1014 29.94 843 24.89 1.6 34.8 63 -4.7 23.6
13:50 1014 29.94 843 24.89 2.2 36 59 -5 23
13:55 1014 29.94 843 24.89 2.6 36.6 57 -5.2 22.6
14:00 1014 29.94 843 24.89 3.1 37.6 58 -4.4 24
14:05 1014 29.94 843 24.89 3.2 37.8 53 -5.4 22.3
14:10 1014 29.94 843 24.89 2.5 36.5 55 -5.6 21.9
14:15 1014 29.94 843 24.89 2.2 35.9 56 -5.8 21.5
14:20 1014 29.94 843 24.89 1.9 35.4 54 -6.3 20.6
14:25 1014 29.94 843 24.89 2 35.6 53 -6.6 20.1
14:30 1014 29.94 843 24.89 1.6 34.9 55 -6.4 20.4
14:35 1014 29.94 843 24.89 1.2 34.2 59 -6 21.1
14:40 1014 29.94 843 24.89 1.1 33.9 64 -5.1 22.9
14:45 1014 29.94 843 24.89 1.3 34.4 60 -5.5 22.1
14:50 1014 29.94 843 24.89 1.1 33.9 54 -7.3 18.9
14:55 1014 29.94 843 24.89 1 33.8 58 -6.4 20.4
15:00 1014 29.94 843 24.89 1.3 34.3 61 -5.4 22.2
15:05 1014 29.94 843 24.89 1.5 34.8 65 -4.3 24.2
15:10 1014 29.94 843 24.89 2.4 36.4 58 -5.1 22.8
15:15 1014 29.94 843 24.89 2 35.6 58 -5.5 22.2
15:20 1014 29.94 843 24.89 1.3 34.3 61 -5.3 22.4
15:25 1014 29.94 843 24.89 1.1 34 60 -5.9 21.4
15:30 1014 29.94 843 24.89 1.4 34.6 56 -6.4 20.5
15:35 1014 29.94 843 24.89 2 35.6 54 -6.3 20.6
15:40 1014 29.94 843 24.89 2 35.6 52 -6.9 19.5
15:45 1014 29.94 843 24.89 2.2 36 53 -6.3 20.6
15:50 1013 29.91 843 24.89 1.9 35.5 53 -6.7 20
15:55 1013 29.91 843 24.89 1.8 35.3 57 -5.8 21.6
16:00 1013 29.91 843 24.89 1.4 34.6 59 -5.7 21.7
16:05 1013 29.91 843 24.89 0.7 33.3 59 -6.4 20.5
16:10 1013 29.91 843 24.89 0.8 33.4 63 -5.5 22
16:15 1013 29.91 843 24.89 0.8 33.5 65 -5.1 22.8
16:20 1013 29.91 843 24.89 0.9 33.6 64 -5.2 22.6
16:25 1013 29.91 842 24.86 0.8 33.5 61 -5.8 21.6
16:30 1013 29.91 842 24.86 1 33.8 61 -5.7 21.7
16:35 1013 29.91 842 24.86 1.1 34 60 -5.9 21.5
16:40 1013 29.91 842 24.86 1 33.8 66 -4.7 23.5
16:45 1013 29.91 842 24.86 0.3 32.6 69 -4.8 23.4
16:50 1013 29.91 842 24.86 -0.6 30.9 77 -4.1 24.6
16:55 1013 29.91 842 24.86 -1.3 29.7 81 -4.1 24.7
17:00 1013 29.91 842 24.86 -1.5 29.2 82 -4.1 24.5
17:05 1013 29.91 842 24.86 -1.7 28.9 82 -4.4 24.1
17:10 1013 29.91 842 24.86 -1.8 28.8 83 -4.3 24.2
17:15 1013 29.91 842 24.86 -1.8 28.8 83 -4.4 24.1
17:20 1013 29.91 842 24.86 -1.9 28.5 83 -4.4 24.1
17:25 1013 29.91 842 24.86 -1.9 28.5 81 -4.7 23.5
17:30 1013 29.91 842 24.86 -2.1 28.2 85 -4.3 24.2
17:35 1013 29.91 842 24.86 -2.2 28 86 -4.3 24.3
17:40 1013 29.91 842 24.86 -2.5 27.5 87 -4.4 24.1
17:45 1013 29.91 842 24.86 -2.6 27.4 88 -4.3 24.3
17:50 1013 29.91 842 24.86 -2.8 26.9 85 -5 23
17:55 1013 29.91 842 24.86 -2.9 26.8 84 -5.3 22.5
18:00 1013 29.91 842 24.86 -2.9 26.7 85 -5.1 22.8
18:05 1013 29.91 842 24.86 -3.3 26 86 -5.4 22.4
18:10 1013 29.91 842 24.86 -3.3 26 87 -5.2 22.6
18:15 1013 29.91 842 24.86 -3.2 26.2 87 -5.1 22.8
18:20 1013 29.91 842 24.86 -3.2 26.2 87 -5.1 22.8
18:25 1013 29.91 842 24.86 -3.3 26 87 -5.2 22.7
18:30 1013 29.91 842 24.86 -3.5 25.8 87 -5.3 22.4
18:35 1013 29.91 842 24.86 -3.8 25.1 87 -5.7 21.7
18:40 1013 29.91 842 24.86 -4.1 24.6 87 -6 21.3
18:45 1013 29.91 842 24.86 -4.1 24.6 87 -6 21.3
18:50 1013 29.91 842 24.86 -4.2 24.5 87 -6 21.2
18:55 1013 29.91 842 24.86 -4.2 24.4 87 -6 21.2
19:00 1013 29.91 842 24.86 -4.2 24.4 87 -6.1 21
19:05 1013 29.91 842 24.86 -4.2 24.5 86 -6.1 21
19:10 1013 29.91 842 24.86 -4 24.8 86 -6 21.1
19:15 1013 29.91 842 24.86 -4.1 24.6 86 -6.1 21.1
19:20 1013 29.91 842 24.86 -4.3 24.2 87 -6.2 20.9
19:25 1013 29.91 842 24.86 -4.5 24 87 -6.3 20.7
19:30 1013 29.91 842 24.86 -4.5 23.8 87 -6.3 20.6
19:35 1013 29.91 842 24.86 -4.6 23.6 88 -6.4 20.5
19:40 1013 29.91 842 24.86 -4.6 23.6 88 -6.4 20.5
19:45 1013 29.91 842 24.86 -4.7 23.6 86 -6.6 20.1
19:50 1013 29.91 842 24.86 -4.8 23.4 86 -6.8 19.8
19:55 1013 29.91 842 24.86 -4.8 23.3 86 -6.7 19.9
20:00 1013 29.91 842 24.86 -4.8 23.4 87 -6.6 20.1
20:05 1013 29.91 842 24.86 -4.6 23.7 86 -6.5 20.2
20:10 1013 29.91 842 24.86 -4.5 23.9 85 -6.7 20
20:15 1013 29.91 842 24.86 -4.5 23.8 86 -6.6 20.1
20:20 1013 29.91 842 24.86 -4.6 23.7 86 -6.7 20
20:25 1013 29.91 842 24.86 -4.7 23.5 86 -6.8 19.8
20:30 1013 29.91 842 24.86 -5 23 87 -6.9 19.5
20:35 1013 29.91 842 24.86 -5 22.9 86 -7 19.4
20:40 1013 29.91 842 24.86 -4.9 23.1 86 -7 19.5
20:45 1013 29.91 842 24.86 -4.8 23.4 84 -7 19.3
20:50 1013 29.91 842 24.86 -4.7 23.5 85 -6.8 19.7
20:55 1013 29.91 842 24.86 -4.6 23.7 84 -6.9 19.7
21:00 1013 29.91 842 24.86 -4.5 23.9 84 -6.8 19.7
21:05 1013 29.91 842 24.86 -4.5 23.9 84 -6.8 19.7
21:10 1013 29.91 842 24.86 -4.5 23.9 84 -6.8 19.7
21:15 1013 29.91 842 24.86 -4.5 23.9 85 -6.7 20
21:20 1013 29.91 842 24.86 -4.4 24.1 83 -6.8 19.8
21:25 1013 29.91 842 24.86 -4.4 24.1 84 -6.7 20
21:30 1013 29.91 842 24.86 -4.6 23.7 84 -7 19.5
21:35 1013 29.91 842 24.86 -4.5 23.9 84 -6.7 19.9
21:40 1013 29.91 842 24.86 -4.5 23.9 84 -6.7 19.9
21:45 1013 29.91 842 24.86 -4.5 23.9 84 -6.7 19.9
21:50 1013 29.91 842 24.86 -4.5 24 84 -6.7 19.9
21:55 1013 29.91 842 24.86 -4.5 24 84 -6.7 19.9
22:00 1013 29.91 842 24.86 -4.5 23.8 85 -6.7 19.9
22:05 1013 29.91 842 24.86 -4.6 23.8 85 -6.7 19.9
22:10 1012 29.88 842 24.86 -4.7 23.6 86 -6.7 19.9
22:15 1012 29.88 842 24.86 -4.6 23.7 86 -6.6 20.1
22:20 1012 29.88 842 24.86 -4.7 23.6 87 -6.6 20.2
22:25 1012 29.88 842 24.86 -4.7 23.6 86 -6.7 20
22:30 1012 29.88 842 24.86 -4.6 23.8 85 -6.7 19.9
22:35 1012 29.88 842 24.86 -4.6 23.7 86 -6.6 20.1
22:40 1012 29.88 842 24.86 -4.7 23.5 87 -6.6 20
22:45 1012 29.88 842 24.86 -4.7 23.5 86 -6.7 19.9
22:50 1012 29.88 842 24.86 -4.6 23.7 86 -6.7 20
22:55 1012 29.88 842 24.86 -4.6 23.7 86 -6.6 20.1
23:00 1012 29.88 842 24.86 -4.6 23.7 86 -6.7 20
23:05 1012 29.88 842 24.86 -4.5 23.9 85 -6.7 19.9
23:10 1012 29.88 842 24.86 -4.5 23.8 85 -6.8 19.8
23:15 1012 29.88 842 24.86 -4.6 23.6 85 -6.8 19.8
23:20 1012 29.88 842 24.86 -4.8 23.3 86 -6.9 19.6
23:25 1012 29.88 842 24.86 -4.9 23.2 85 -7 19.4
23:30 1012 29.88 842 24.86 -4.9 23.1 85 -7.1 19.3
23:35 1012 29.88 842 24.86 -4.9 23.1 85 -7.1 19.2
23:40 1012 29.88 842 24.86 -5 22.9 85 -7.2 19.1
23:45 1012 29.88 842 24.86 -5.2 22.6 85 -7.3 18.8
23:50 1012 29.88 842 24.86 -5.3 22.5 85 -7.5 18.5
23:55 1012 29.88 842 24.86 -5.3 22.4 85 -7.4 18.6
24:00 1012 29.88 842 24.86 -5.4 22.2 85 -7.6 18.3